sensor_id;sensor_type;location;lat;lon;timestamp;P1;durP1;ratioP1;P2;durP2;ratioP2
68866;SDS011;56451;44.804;20.476;2024-01-27T00:00:13;30.95;;;14.07;;
68866;SDS011;56451;44.804;20.476;2024-01-27T00:02:59;31.30;;;13.70;;
68866;SDS011;56451;44.804;20.476;2024-01-27T00:05:26;31.50;;;14.85;;
68866;SDS011;56451;44.804;20.476;2024-01-27T00:07:55;30.13;;;13.48;;
68866;SDS011;56451;44.804;20.476;2024-01-27T00:10:22;28.55;;;12.93;;
68866;SDS011;56451;44.804;20.476;2024-01-27T00:12:49;28.83;;;13.77;;
68866;SDS011;56451;44.804;20.476;2024-01-27T00:15:24;26.77;;;12.77;;
68866;SDS011;56451;44.804;20.476;2024-01-27T00:17:50;25.05;;;12.57;;
68866;SDS011;56451;44.804;20.476;2024-01-27T00:20:17;26.52;;;12.57;;
68866;SDS011;56451;44.804;20.476;2024-01-27T00:22:43;27.93;;;12.20;;
68866;SDS011;56451;44.804;20.476;2024-01-27T00:25:10;26.65;;;14.40;;
68866;SDS011;56451;44.804;20.476;2024-01-27T00:27:37;27.00;;;12.88;;
68866;SDS011;56451;44.804;20.476;2024-01-27T00:30:04;24.20;;;12.60;;
68866;SDS011;56451;44.804;20.476;2024-01-27T00:32:32;25.60;;;12.02;;
68866;SDS011;56451;44.804;20.476;2024-01-27T00:34:59;22.92;;;11.27;;
68866;SDS011;56451;44.804;20.476;2024-01-27T00:37:26;24.33;;;10.98;;
68866;SDS011;56451;44.804;20.476;2024-01-27T00:39:52;25.98;;;10.80;;
68866;SDS011;56451;44.804;20.476;2024-01-27T00:42:40;24.88;;;11.38;;
68866;SDS011;56451;44.804;20.476;2024-01-27T00:45:27;22.50;;;9.70;;
68866;SDS011;56451;44.804;20.476;2024-01-27T00:48:16;19.90;;;9.65;;
68866;SDS011;56451;44.804;20.476;2024-01-27T00:51:03;23.13;;;10.55;;
68866;SDS011;56451;44.804;20.476;2024-01-27T00:53:53;26.85;;;11.70;;
68866;SDS011;56451;44.804;20.476;2024-01-27T00:56:40;22.63;;;10.50;;
68866;SDS011;56451;44.804;20.476;2024-01-27T00:59:07;21.90;;;10.32;;
68866;SDS011;56451;44.804;20.476;2024-01-27T01:01:36;21.98;;;10.18;;
68866;SDS011;56451;44.804;20.476;2024-01-27T01:04:22;22.15;;;10.02;;
68866;SDS011;56451;44.804;20.476;2024-01-27T01:07:13;24.65;;;10.27;;
68866;SDS011;56451;44.804;20.476;2024-01-27T01:09:59;20.58;;;10.07;;
68866;SDS011;56451;44.804;20.476;2024-01-27T01:12:26;21.02;;;9.95;;
68866;SDS011;56451;44.804;20.476;2024-01-27T01:15:12;17.98;;;9.90;;
68866;SDS011;56451;44.804;20.476;2024-01-27T01:17:41;14.63;;;8.38;;
68866;SDS011;56451;44.804;20.476;2024-01-27T01:20:07;22.55;;;9.95;;
68866;SDS011;56451;44.804;20.476;2024-01-27T01:22:34;18.25;;;9.90;;
68866;SDS011;56451;44.804;20.476;2024-01-27T01:25:04;23.15;;;9.73;;
68866;SDS011;56451;44.804;20.476;2024-01-27T01:27:50;22.90;;;9.32;;
68866;SDS011;56451;44.804;20.476;2024-01-27T01:30:38;23.05;;;9.80;;
68866;SDS011;56451;44.804;20.476;2024-01-27T01:33:25;22.60;;;10.32;;
68866;SDS011;56451;44.804;20.476;2024-01-27T01:35:53;21.52;;;9.52;;
68866;SDS011;56451;44.804;20.476;2024-01-27T01:38:22;19.42;;;9.63;;
68866;SDS011;56451;44.804;20.476;2024-01-27T01:41:12;22.35;;;10.77;;
68866;SDS011;56451;44.804;20.476;2024-01-27T01:43:38;23.83;;;9.57;;
68866;SDS011;56451;44.804;20.476;2024-01-27T01:46:05;20.85;;;10.00;;
68866;SDS011;56451;44.804;20.476;2024-01-27T01:48:31;26.52;;;10.32;;
68866;SDS011;56451;44.804;20.476;2024-01-27T01:50:59;19.67;;;9.45;;
68866;SDS011;56451;44.804;20.476;2024-01-27T01:53:47;21.00;;;9.52;;
68866;SDS011;56451;44.804;20.476;2024-01-27T01:56:15;25.63;;;11.35;;
68866;SDS011;56451;44.804;20.476;2024-01-27T01:58:45;21.45;;;11.90;;
68866;SDS011;56451;44.804;20.476;2024-01-27T02:01:12;24.08;;;12.23;;
68866;SDS011;56451;44.804;20.476;2024-01-27T02:03:38;25.20;;;11.27;;
68866;SDS011;56451;44.804;20.476;2024-01-27T02:06:05;29.63;;;13.57;;
68866;SDS011;56451;44.804;20.476;2024-01-27T02:08:32;22.90;;;11.77;;
68866;SDS011;56451;44.804;20.476;2024-01-27T02:11:01;29.05;;;12.13;;
68866;SDS011;56451;44.804;20.476;2024-01-27T02:13:30;24.63;;;10.00;;
68866;SDS011;56451;44.804;20.476;2024-01-27T02:15:56;29.58;;;12.35;;
68866;SDS011;56451;44.804;20.476;2024-01-27T02:18:22;31.10;;;14.73;;
68866;SDS011;56451;44.804;20.476;2024-01-27T02:20:48;31.65;;;14.80;;
68866;SDS011;56451;44.804;20.476;2024-01-27T02:23:14;36.33;;;15.27;;
68866;SDS011;56451;44.804;20.476;2024-01-27T02:25:44;32.28;;;15.13;;
68866;SDS011;56451;44.804;20.476;2024-01-27T02:28:10;32.72;;;13.55;;
68866;SDS011;56451;44.804;20.476;2024-01-27T02:30:38;32.57;;;13.83;;
68866;SDS011;56451;44.804;20.476;2024-01-27T02:33:05;27.75;;;11.65;;
68866;SDS011;56451;44.804;20.476;2024-01-27T02:35:31;23.50;;;11.23;;
68866;SDS011;56451;44.804;20.476;2024-01-27T02:38:16;24.92;;;10.77;;
68866;SDS011;56451;44.804;20.476;2024-01-27T02:40:43;21.73;;;10.65;;
68866;SDS011;56451;44.804;20.476;2024-01-27T02:43:29;22.87;;;10.40;;
68866;SDS011;56451;44.804;20.476;2024-01-27T02:46:15;21.75;;;9.75;;
68866;SDS011;56451;44.804;20.476;2024-01-27T02:49:02;22.58;;;10.70;;
68866;SDS011;56451;44.804;20.476;2024-01-27T02:51:48;24.65;;;10.18;;
68866;SDS011;56451;44.804;20.476;2024-01-27T02:54:18;21.55;;;10.63;;
68866;SDS011;56451;44.804;20.476;2024-01-27T02:56:45;23.97;;;11.70;;
68866;SDS011;56451;44.804;20.476;2024-01-27T02:59:12;23.17;;;10.30;;
68866;SDS011;56451;44.804;20.476;2024-01-27T03:01:39;44.40;;;12.95;;
68866;SDS011;56451;44.804;20.476;2024-01-27T03:04:27;25.80;;;11.25;;
68866;SDS011;56451;44.804;20.476;2024-01-27T03:06:53;23.60;;;11.27;;
68866;SDS011;56451;44.804;20.476;2024-01-27T03:09:22;26.30;;;12.20;;
68866;SDS011;56451;44.804;20.476;2024-01-27T03:11:49;26.73;;;12.02;;
68866;SDS011;56451;44.804;20.476;2024-01-27T03:14:16;26.02;;;12.27;;
68866;SDS011;56451;44.804;20.476;2024-01-27T03:16:43;23.60;;;11.27;;
68866;SDS011;56451;44.804;20.476;2024-01-27T03:19:29;23.00;;;12.33;;
68866;SDS011;56451;44.804;20.476;2024-01-27T03:22:17;24.17;;;11.88;;
68866;SDS011;56451;44.804;20.476;2024-01-27T03:24:43;25.20;;;11.70;;
68866;SDS011;56451;44.804;20.476;2024-01-27T03:27:16;21.77;;;12.88;;
68866;SDS011;56451;44.804;20.476;2024-01-27T03:29:43;23.55;;;11.45;;
68866;SDS011;56451;44.804;20.476;2024-01-27T03:32:14;24.90;;;11.97;;
68866;SDS011;56451;44.804;20.476;2024-01-27T03:34:44;25.42;;;12.00;;
68866;SDS011;56451;44.804;20.476;2024-01-27T03:37:12;23.15;;;12.18;;
68866;SDS011;56451;44.804;20.476;2024-01-27T03:40:03;24.50;;;11.60;;
68866;SDS011;56451;44.804;20.476;2024-01-27T03:42:29;24.50;;;12.00;;
68866;SDS011;56451;44.804;20.476;2024-01-27T03:44:56;24.03;;;11.47;;
68866;SDS011;56451;44.804;20.476;2024-01-27T03:47:22;22.00;;;11.88;;
68866;SDS011;56451;44.804;20.476;2024-01-27T03:49:48;26.70;;;12.20;;
68866;SDS011;56451;44.804;20.476;2024-01-27T03:52:35;26.30;;;12.90;;
68866;SDS011;56451;44.804;20.476;2024-01-27T03:55:21;24.20;;;12.43;;
68866;SDS011;56451;44.804;20.476;2024-01-27T03:57:50;26.00;;;11.80;;
68866;SDS011;56451;44.804;20.476;2024-01-27T04:00:18;30.83;;;13.25;;
68866;SDS011;56451;44.804;20.476;2024-01-27T04:02:48;26.95;;;12.68;;
68866;SDS011;56451;44.804;20.476;2024-01-27T04:05:14;22.92;;;11.27;;
68866;SDS011;56451;44.804;20.476;2024-01-27T04:07:40;24.30;;;12.00;;
68866;SDS011;56451;44.804;20.476;2024-01-27T04:10:07;23.37;;;11.10;;
68866;SDS011;56451;44.804;20.476;2024-01-27T04:12:35;20.95;;;9.93;;
68866;SDS011;56451;44.804;20.476;2024-01-27T04:15:01;16.23;;;8.23;;
68866;SDS011;56451;44.804;20.476;2024-01-27T04:17:29;18.73;;;8.48;;
68866;SDS011;56451;44.804;20.476;2024-01-27T04:19:56;11.90;;;4.80;;
68866;SDS011;56451;44.804;20.476;2024-01-27T04:22:42;8.60;;;3.80;;
68866;SDS011;56451;44.804;20.476;2024-01-27T04:25:08;4.80;;;2.50;;
68866;SDS011;56451;44.804;20.476;2024-01-27T04:27:38;6.95;;;2.17;;
68866;SDS011;56451;44.804;20.476;2024-01-27T04:30:06;4.32;;;1.90;;
68866;SDS011;56451;44.804;20.476;2024-01-27T04:32:53;4.65;;;1.98;;
68866;SDS011;56451;44.804;20.476;2024-01-27T04:35:19;4.40;;;1.67;;
68866;SDS011;56451;44.804;20.476;2024-01-27T04:37:45;2.78;;;1.63;;
68866;SDS011;56451;44.804;20.476;2024-01-27T04:40:12;2.95;;;1.30;;
68866;SDS011;56451;44.804;20.476;2024-01-27T04:42:40;4.22;;;1.58;;
68866;SDS011;56451;44.804;20.476;2024-01-27T04:45:07;2.33;;;1.40;;
68866;SDS011;56451;44.804;20.476;2024-01-27T04:47:54;5.18;;;1.60;;
68866;SDS011;56451;44.804;20.476;2024-01-27T04:50:21;3.22;;;1.27;;
68866;SDS011;56451;44.804;20.476;2024-01-27T04:52:52;2.53;;;1.20;;
68866;SDS011;56451;44.804;20.476;2024-01-27T04:55:18;3.72;;;1.25;;
68866;SDS011;56451;44.804;20.476;2024-01-27T04:57:44;2.67;;;1.00;;
68866;SDS011;56451;44.804;20.476;2024-01-27T05:00:11;3.60;;;1.15;;
68866;SDS011;56451;44.804;20.476;2024-01-27T05:02:41;2.83;;;1.00;;
68866;SDS011;56451;44.804;20.476;2024-01-27T05:05:08;3.35;;;1.10;;
68866;SDS011;56451;44.804;20.476;2024-01-27T05:07:34;1.77;;;0.73;;
68866;SDS011;56451;44.804;20.476;2024-01-27T05:10:01;3.43;;;1.10;;
68866;SDS011;56451;44.804;20.476;2024-01-27T05:12:29;4.13;;;0.90;;
68866;SDS011;56451;44.804;20.476;2024-01-27T05:14:56;3.22;;;1.20;;
68866;SDS011;56451;44.804;20.476;2024-01-27T05:17:27;3.80;;;1.00;;
68866;SDS011;56451;44.804;20.476;2024-01-27T05:19:57;5.50;;;1.50;;
68866;SDS011;56451;44.804;20.476;2024-01-27T05:22:23;4.17;;;0.80;;
68866;SDS011;56451;44.804;20.476;2024-01-27T05:24:49;2.55;;;0.98;;
68866;SDS011;56451;44.804;20.476;2024-01-27T05:27:15;1.67;;;0.70;;
68866;SDS011;56451;44.804;20.476;2024-01-27T05:29:42;1.52;;;0.82;;
68866;SDS011;56451;44.804;20.476;2024-01-27T05:32:09;2.38;;;0.70;;
68866;SDS011;56451;44.804;20.476;2024-01-27T05:34:35;1.53;;;0.80;;
68866;SDS011;56451;44.804;20.476;2024-01-27T05:37:22;2.35;;;0.60;;
68866;SDS011;56451;44.804;20.476;2024-01-27T05:40:08;3.85;;;0.70;;
68866;SDS011;56451;44.804;20.476;2024-01-27T05:42:55;1.33;;;0.68;;
68866;SDS011;56451;44.804;20.476;2024-01-27T05:45:21;1.70;;;0.75;;
68866;SDS011;56451;44.804;20.476;2024-01-27T05:47:49;0.90;;;0.47;;
68866;SDS011;56451;44.804;20.476;2024-01-27T05:50:16;1.38;;;0.40;;
68866;SDS011;56451;44.804;20.476;2024-01-27T05:52:48;2.40;;;0.68;;
68866;SDS011;56451;44.804;20.476;2024-01-27T05:55:14;1.45;;;0.60;;
68866;SDS011;56451;44.804;20.476;2024-01-27T05:57:42;1.95;;;0.80;;
68866;SDS011;56451;44.804;20.476;2024-01-27T06:00:08;1.80;;;0.50;;
68866;SDS011;56451;44.804;20.476;2024-01-27T06:02:36;1.35;;;0.60;;
68866;SDS011;56451;44.804;20.476;2024-01-27T06:05:02;1.25;;;0.60;;
68866;SDS011;56451;44.804;20.476;2024-01-27T06:07:29;2.75;;;0.75;;
68866;SDS011;56451;44.804;20.476;2024-01-27T06:09:55;2.05;;;0.70;;
68866;SDS011;56451;44.804;20.476;2024-01-27T06:12:22;3.57;;;0.80;;
68866;SDS011;56451;44.804;20.476;2024-01-27T06:14:49;2.15;;;0.80;;
68866;SDS011;56451;44.804;20.476;2024-01-27T06:17:35;4.25;;;1.10;;
68866;SDS011;56451;44.804;20.476;2024-01-27T06:20:01;0.95;;;0.65;;
68866;SDS011;56451;44.804;20.476;2024-01-27T06:22:48;1.52;;;0.70;;
68866;SDS011;56451;44.804;20.476;2024-01-27T06:25:14;1.57;;;0.80;;
68866;SDS011;56451;44.804;20.476;2024-01-27T06:27:42;1.50;;;0.95;;
68866;SDS011;56451;44.804;20.476;2024-01-27T06:30:08;1.98;;;0.77;;
68866;SDS011;56451;44.804;20.476;2024-01-27T06:32:36;2.13;;;0.95;;
68866;SDS011;56451;44.804;20.476;2024-01-27T06:35:22;1.70;;;0.52;;
68866;SDS011;56451;44.804;20.476;2024-01-27T06:38:09;2.83;;;1.10;;
68866;SDS011;56451;44.804;20.476;2024-01-27T06:40:55;2.80;;;0.82;;
68866;SDS011;56451;44.804;20.476;2024-01-27T06:43:21;2.78;;;0.70;;
68866;SDS011;56451;44.804;20.476;2024-01-27T06:45:48;1.88;;;0.65;;
68866;SDS011;56451;44.804;20.476;2024-01-27T06:48:14;2.22;;;0.75;;
68866;SDS011;56451;44.804;20.476;2024-01-27T06:50:40;2.65;;;0.57;;
68866;SDS011;56451;44.804;20.476;2024-01-27T06:53:06;2.90;;;1.05;;
68866;SDS011;56451;44.804;20.476;2024-01-27T06:55:35;2.15;;;0.65;;
68866;SDS011;56451;44.804;20.476;2024-01-27T06:58:01;1.42;;;0.80;;
68866;SDS011;56451;44.804;20.476;2024-01-27T07:00:48;0.93;;;0.50;;
68866;SDS011;56451;44.804;20.476;2024-01-27T07:03:35;2.28;;;1.02;;
68866;SDS011;56451;44.804;20.476;2024-01-27T07:06:02;6.40;;;0.88;;
68866;SDS011;56451;44.804;20.476;2024-01-27T07:08:48;2.97;;;0.73;;
68866;SDS011;56451;44.804;20.476;2024-01-27T07:11:35;2.60;;;0.95;;
68866;SDS011;56451;44.804;20.476;2024-01-27T07:14:01;4.07;;;0.87;;
68866;SDS011;56451;44.804;20.476;2024-01-27T07:16:28;3.55;;;0.90;;
68866;SDS011;56451;44.804;20.476;2024-01-27T07:18:54;2.38;;;0.82;;
68866;SDS011;56451;44.804;20.476;2024-01-27T07:21:41;2.92;;;0.80;;
68866;SDS011;56451;44.804;20.476;2024-01-27T07:24:26;1.67;;;0.60;;
68866;SDS011;56451;44.804;20.476;2024-01-27T07:26:53;1.87;;;0.90;;
68866;SDS011;56451;44.804;20.476;2024-01-27T07:29:22;1.20;;;0.65;;
68866;SDS011;56451;44.804;20.476;2024-01-27T07:32:10;3.00;;;0.70;;
68866;SDS011;56451;44.804;20.476;2024-01-27T07:34:58;1.52;;;0.60;;
68866;SDS011;56451;44.804;20.476;2024-01-27T07:37:44;2.72;;;0.75;;
68866;SDS011;56451;44.804;20.476;2024-01-27T07:40:30;2.43;;;0.80;;
68866;SDS011;56451;44.804;20.476;2024-01-27T07:42:56;1.75;;;0.80;;
68866;SDS011;56451;44.804;20.476;2024-01-27T07:45:43;2.92;;;0.73;;
68866;SDS011;56451;44.804;20.476;2024-01-27T07:48:30;2.33;;;0.80;;
68866;SDS011;56451;44.804;20.476;2024-01-27T07:50:57;3.78;;;0.88;;
68866;SDS011;56451;44.804;20.476;2024-01-27T07:53:45;2.97;;;0.80;;
68866;SDS011;56451;44.804;20.476;2024-01-27T07:56:31;2.92;;;0.70;;
68866;SDS011;56451;44.804;20.476;2024-01-27T07:59:17;2.33;;;0.38;;
68866;SDS011;56451;44.804;20.476;2024-01-27T08:02:04;1.67;;;0.60;;
68866;SDS011;56451;44.804;20.476;2024-01-27T08:04:51;2.15;;;0.73;;
68866;SDS011;56451;44.804;20.476;2024-01-27T08:07:18;1.23;;;0.50;;
68866;SDS011;56451;44.804;20.476;2024-01-27T08:09:44;2.08;;;0.70;;
68866;SDS011;56451;44.804;20.476;2024-01-27T08:12:11;4.28;;;0.80;;
68866;SDS011;56451;44.804;20.476;2024-01-27T08:14:40;2.13;;;0.80;;
68866;SDS011;56451;44.804;20.476;2024-01-27T08:17:26;1.55;;;0.80;;
68866;SDS011;56451;44.804;20.476;2024-01-27T08:20:14;1.80;;;0.53;;
68866;SDS011;56451;44.804;20.476;2024-01-27T08:23:00;1.65;;;0.70;;
68866;SDS011;56451;44.804;20.476;2024-01-27T08:25:46;2.03;;;0.88;;
68866;SDS011;56451;44.804;20.476;2024-01-27T08:28:32;1.45;;;0.70;;
68866;SDS011;56451;44.804;20.476;2024-01-27T08:31:05;3.28;;;0.70;;
68866;SDS011;56451;44.804;20.476;2024-01-27T08:33:51;2.30;;;0.80;;
68866;SDS011;56451;44.804;20.476;2024-01-27T08:36:37;2.63;;;0.65;;
68866;SDS011;56451;44.804;20.476;2024-01-27T08:39:07;4.10;;;0.82;;
68866;SDS011;56451;44.804;20.476;2024-01-27T08:41:53;5.35;;;0.90;;
68866;SDS011;56451;44.804;20.476;2024-01-27T08:44:40;3.33;;;0.90;;
68866;SDS011;56451;44.804;20.476;2024-01-27T08:47:26;2.90;;;0.73;;
68866;SDS011;56451;44.804;20.476;2024-01-27T08:49:53;5.22;;;0.75;;
68866;SDS011;56451;44.804;20.476;2024-01-27T08:52:20;7.10;;;1.00;;
68866;SDS011;56451;44.804;20.476;2024-01-27T08:55:06;2.78;;;0.73;;
68866;SDS011;56451;44.804;20.476;2024-01-27T08:57:33;1.73;;;0.70;;
68866;SDS011;56451;44.804;20.476;2024-01-27T08:59:59;5.37;;;1.07;;
68866;SDS011;56451;44.804;20.476;2024-01-27T09:02:25;2.65;;;0.75;;
68866;SDS011;56451;44.804;20.476;2024-01-27T09:04:51;3.17;;;0.80;;
68866;SDS011;56451;44.804;20.476;2024-01-27T09:07:17;3.35;;;0.82;;
68866;SDS011;56451;44.804;20.476;2024-01-27T09:09:44;5.40;;;0.70;;
68866;SDS011;56451;44.804;20.476;2024-01-27T09:12:31;5.75;;;0.90;;
68866;SDS011;56451;44.804;20.476;2024-01-27T09:15:18;3.38;;;0.60;;
68866;SDS011;56451;44.804;20.476;2024-01-27T09:18:04;2.03;;;0.38;;
68866;SDS011;56451;44.804;20.476;2024-01-27T09:20:50;2.25;;;0.75;;
68866;SDS011;56451;44.804;20.476;2024-01-27T09:23:36;5.93;;;0.73;;
68866;SDS011;56451;44.804;20.476;2024-01-27T09:26:24;4.03;;;0.80;;
68866;SDS011;56451;44.804;20.476;2024-01-27T09:28:51;5.32;;;1.00;;
68866;SDS011;56451;44.804;20.476;2024-01-27T09:31:36;2.15;;;1.05;;
68866;SDS011;56451;44.804;20.476;2024-01-27T09:34:23;3.03;;;0.50;;
68866;SDS011;56451;44.804;20.476;2024-01-27T09:37:06;2.77;;;0.83;;
68866;SDS011;56451;44.804;20.476;2024-01-27T09:39:52;6.65;;;0.95;;
68866;SDS011;56451;44.804;20.476;2024-01-27T09:42:20;3.25;;;1.20;;
68866;SDS011;56451;44.804;20.476;2024-01-27T09:45:07;4.65;;;0.90;;
68866;SDS011;56451;44.804;20.476;2024-01-27T09:47:56;4.00;;;0.93;;
68866;SDS011;56451;44.804;20.476;2024-01-27T09:50:44;2.43;;;0.63;;
68866;SDS011;56451;44.804;20.476;2024-01-27T09:53:31;1.38;;;0.60;;
68866;SDS011;56451;44.804;20.476;2024-01-27T09:56:18;4.13;;;0.93;;
68866;SDS011;56451;44.804;20.476;2024-01-27T09:59:05;5.63;;;0.98;;
68866;SDS011;56451;44.804;20.476;2024-01-27T10:01:52;2.33;;;1.00;;
68866;SDS011;56451;44.804;20.476;2024-01-27T10:04:21;1.57;;;0.83;;
68866;SDS011;56451;44.804;20.476;2024-01-27T10:07:11;2.55;;;0.95;;
68866;SDS011;56451;44.804;20.476;2024-01-27T10:09:58;2.45;;;0.82;;
68866;SDS011;56451;44.804;20.476;2024-01-27T10:12:44;2.35;;;1.00;;
68866;SDS011;56451;44.804;20.476;2024-01-27T10:15:21;4.82;;;1.17;;
68866;SDS011;56451;44.804;20.476;2024-01-27T10:18:08;1.97;;;0.80;;
68866;SDS011;56451;44.804;20.476;2024-01-27T10:20:40;4.10;;;1.00;;
68866;SDS011;56451;44.804;20.476;2024-01-27T10:23:11;5.45;;;1.30;;
68866;SDS011;56451;44.804;20.476;2024-01-27T10:25:38;2.50;;;0.93;;
68866;SDS011;56451;44.804;20.476;2024-01-27T10:28:25;3.78;;;0.80;;
68866;SDS011;56451;44.804;20.476;2024-01-27T10:31:12;2.87;;;0.70;;
68866;SDS011;56451;44.804;20.476;2024-01-27T10:33:58;4.10;;;0.98;;
68866;SDS011;56451;44.804;20.476;2024-01-27T10:36:45;4.30;;;1.10;;
68866;SDS011;56451;44.804;20.476;2024-01-27T10:39:33;3.95;;;1.30;;
68866;SDS011;56451;44.804;20.476;2024-01-27T10:42:19;4.70;;;1.00;;
68866;SDS011;56451;44.804;20.476;2024-01-27T10:45:05;2.03;;;0.77;;
68866;SDS011;56451;44.804;20.476;2024-01-27T10:47:51;4.65;;;1.17;;
68866;SDS011;56451;44.804;20.476;2024-01-27T10:50:40;4.05;;;1.00;;
68866;SDS011;56451;44.804;20.476;2024-01-27T10:53:12;2.17;;;0.90;;
68866;SDS011;56451;44.804;20.476;2024-01-27T10:55:53;4.88;;;0.90;;
68866;SDS011;56451;44.804;20.476;2024-01-27T10:58:24;5.17;;;0.80;;
68866;SDS011;56451;44.804;20.476;2024-01-27T11:00:52;3.22;;;1.10;;
68866;SDS011;56451;44.804;20.476;2024-01-27T11:03:19;4.50;;;0.93;;
68866;SDS011;56451;44.804;20.476;2024-01-27T11:06:07;2.28;;;0.80;;
68866;SDS011;56451;44.804;20.476;2024-01-27T11:08:53;2.58;;;0.88;;
68866;SDS011;56451;44.804;20.476;2024-01-27T11:11:40;4.10;;;1.10;;
68866;SDS011;56451;44.804;20.476;2024-01-27T11:14:09;7.22;;;1.52;;
68866;SDS011;56451;44.804;20.476;2024-01-27T11:16:36;3.72;;;0.80;;
68866;SDS011;56451;44.804;20.476;2024-01-27T11:19:24;3.05;;;0.85;;
68866;SDS011;56451;44.804;20.476;2024-01-27T11:22:23;4.03;;;0.80;;
68866;SDS011;56451;44.804;20.476;2024-01-27T11:25:05;2.80;;;0.90;;
68866;SDS011;56451;44.804;20.476;2024-01-27T11:27:39;0.68;;;0.55;;
68866;SDS011;56451;44.804;20.476;2024-01-27T11:30:27;3.80;;;0.70;;
68866;SDS011;56451;44.804;20.476;2024-01-27T11:32:55;3.95;;;1.00;;
68866;SDS011;56451;44.804;20.476;2024-01-27T11:35:43;3.28;;;1.20;;
68866;SDS011;56451;44.804;20.476;2024-01-27T11:38:33;2.63;;;1.00;;
68866;SDS011;56451;44.804;20.476;2024-01-27T11:41:07;3.88;;;0.77;;
68866;SDS011;56451;44.804;20.476;2024-01-27T11:43:54;5.32;;;1.20;;
68866;SDS011;56451;44.804;20.476;2024-01-27T11:46:21;6.13;;;1.08;;
68866;SDS011;56451;44.804;20.476;2024-01-27T11:48:48;2.80;;;1.00;;
68866;SDS011;56451;44.804;20.476;2024-01-27T11:51:15;1.63;;;0.87;;
68866;SDS011;56451;44.804;20.476;2024-01-27T11:54:01;2.22;;;0.90;;
68866;SDS011;56451;44.804;20.476;2024-01-27T11:56:47;3.67;;;0.85;;
68866;SDS011;56451;44.804;20.476;2024-01-27T11:59:33;3.13;;;0.77;;
68866;SDS011;56451;44.804;20.476;2024-01-27T12:02:04;3.40;;;1.30;;
68866;SDS011;56451;44.804;20.476;2024-01-27T12:04:51;3.30;;;0.77;;
68866;SDS011;56451;44.804;20.476;2024-01-27T12:07:40;5.78;;;1.10;;
68866;SDS011;56451;44.804;20.476;2024-01-27T12:10:27;3.47;;;0.77;;
68866;SDS011;56451;44.804;20.476;2024-01-27T12:12:53;2.70;;;0.98;;
68866;SDS011;56451;44.804;20.476;2024-01-27T12:15:19;2.35;;;0.90;;
68866;SDS011;56451;44.804;20.476;2024-01-27T12:18:06;3.65;;;1.00;;
68866;SDS011;56451;44.804;20.476;2024-01-27T12:20:46;3.47;;;0.93;;
68866;SDS011;56451;44.804;20.476;2024-01-27T12:23:13;4.40;;;1.05;;
68866;SDS011;56451;44.804;20.476;2024-01-27T12:25:42;3.45;;;0.90;;
68866;SDS011;56451;44.804;20.476;2024-01-27T12:28:28;1.40;;;0.80;;
68866;SDS011;56451;44.804;20.476;2024-01-27T12:31:15;4.05;;;0.88;;
68866;SDS011;56451;44.804;20.476;2024-01-27T12:34:02;3.03;;;0.75;;
68866;SDS011;56451;44.804;20.476;2024-01-27T12:36:49;4.35;;;1.15;;
68866;SDS011;56451;44.804;20.476;2024-01-27T12:39:35;4.82;;;0.85;;
68866;SDS011;56451;44.804;20.476;2024-01-27T12:42:21;2.45;;;0.60;;
68866;SDS011;56451;44.804;20.476;2024-01-27T12:45:08;2.08;;;0.70;;
68866;SDS011;56451;44.804;20.476;2024-01-27T12:47:55;4.20;;;0.90;;
68866;SDS011;56451;44.804;20.476;2024-01-27T12:50:41;3.10;;;0.80;;
68866;SDS011;56451;44.804;20.476;2024-01-27T12:53:27;3.05;;;0.80;;
68866;SDS011;56451;44.804;20.476;2024-01-27T12:56:15;2.67;;;0.80;;
68866;SDS011;56451;44.804;20.476;2024-01-27T12:58:42;4.13;;;0.88;;
68866;SDS011;56451;44.804;20.476;2024-01-27T13:01:29;4.82;;;1.00;;
68866;SDS011;56451;44.804;20.476;2024-01-27T13:03:55;4.72;;;1.25;;
68866;SDS011;56451;44.804;20.476;2024-01-27T13:06:42;5.63;;;1.17;;
68866;SDS011;56451;44.804;20.476;2024-01-27T13:09:08;3.67;;;0.95;;
68866;SDS011;56451;44.804;20.476;2024-01-27T13:11:57;4.10;;;1.08;;
68866;SDS011;56451;44.804;20.476;2024-01-27T13:14:23;2.72;;;1.10;;
68866;SDS011;56451;44.804;20.476;2024-01-27T13:17:10;2.72;;;0.90;;
68866;SDS011;56451;44.804;20.476;2024-01-27T13:19:58;6.93;;;1.17;;
68866;SDS011;56451;44.804;20.476;2024-01-27T13:22:44;3.03;;;0.95;;
68866;SDS011;56451;44.804;20.476;2024-01-27T13:25:10;4.18;;;1.10;;
68866;SDS011;56451;44.804;20.476;2024-01-27T13:27:57;4.28;;;1.00;;
68866;SDS011;56451;44.804;20.476;2024-01-27T13:30:43;3.65;;;0.80;;
68866;SDS011;56451;44.804;20.476;2024-01-27T13:33:30;2.40;;;0.93;;
68866;SDS011;56451;44.804;20.476;2024-01-27T13:36:18;4.22;;;1.38;;
68866;SDS011;56451;44.804;20.476;2024-01-27T13:38:44;5.07;;;1.70;;
68866;SDS011;56451;44.804;20.476;2024-01-27T13:41:31;1.27;;;0.57;;
68866;SDS011;56451;44.804;20.476;2024-01-27T13:44:17;5.65;;;0.77;;
68866;SDS011;56451;44.804;20.476;2024-01-27T13:47:03;4.30;;;0.93;;
68866;SDS011;56451;44.804;20.476;2024-01-27T13:49:50;4.03;;;1.23;;
68866;SDS011;56451;44.804;20.476;2024-01-27T13:52:36;4.78;;;1.17;;
68866;SDS011;56451;44.804;20.476;2024-01-27T13:55:22;5.20;;;0.90;;
68866;SDS011;56451;44.804;20.476;2024-01-27T13:57:49;2.33;;;0.90;;
68866;SDS011;56451;44.804;20.476;2024-01-27T14:00:35;2.42;;;0.90;;
68866;SDS011;56451;44.804;20.476;2024-01-27T14:03:22;4.57;;;0.90;;
68866;SDS011;56451;44.804;20.476;2024-01-27T14:06:10;4.55;;;0.95;;
68866;SDS011;56451;44.804;20.476;2024-01-27T14:08:58;3.92;;;0.90;;
68866;SDS011;56451;44.804;20.476;2024-01-27T14:11:44;2.65;;;1.10;;
68866;SDS011;56451;44.804;20.476;2024-01-27T14:14:10;2.85;;;1.20;;
68866;SDS011;56451;44.804;20.476;2024-01-27T14:16:57;3.00;;;0.90;;
68866;SDS011;56451;44.804;20.476;2024-01-27T14:19:43;5.25;;;1.15;;
68866;SDS011;56451;44.804;20.476;2024-01-27T14:22:30;2.15;;;0.65;;
68866;SDS011;56451;44.804;20.476;2024-01-27T14:25:18;2.38;;;1.10;;
68866;SDS011;56451;44.804;20.476;2024-01-27T14:28:04;5.60;;;1.30;;
68866;SDS011;56451;44.804;20.476;2024-01-27T14:30:50;9.77;;;1.00;;
68866;SDS011;56451;44.804;20.476;2024-01-27T14:33:36;4.40;;;1.00;;
68866;SDS011;56451;44.804;20.476;2024-01-27T14:36:23;4.65;;;1.08;;
68866;SDS011;56451;44.804;20.476;2024-01-27T14:39:09;2.17;;;0.85;;
68866;SDS011;56451;44.804;20.476;2024-01-27T14:41:37;4.03;;;2.17;;
68866;SDS011;56451;44.804;20.476;2024-01-27T14:44:04;3.03;;;1.17;;
68866;SDS011;56451;44.804;20.476;2024-01-27T14:46:34;7.05;;;1.17;;
68866;SDS011;56451;44.804;20.476;2024-01-27T14:49:20;7.40;;;0.98;;
68866;SDS011;56451;44.804;20.476;2024-01-27T14:52:07;5.75;;;1.20;;
68866;SDS011;56451;44.804;20.476;2024-01-27T14:54:53;5.25;;;1.15;;
68866;SDS011;56451;44.804;20.476;2024-01-27T14:57:42;3.13;;;0.87;;
68866;SDS011;56451;44.804;20.476;2024-01-27T15:00:28;2.50;;;0.93;;
68866;SDS011;56451;44.804;20.476;2024-01-27T15:03:14;3.80;;;1.00;;
68866;SDS011;56451;44.804;20.476;2024-01-27T15:06:01;3.95;;;1.00;;
68866;SDS011;56451;44.804;20.476;2024-01-27T15:08:29;2.05;;;1.02;;
68866;SDS011;56451;44.804;20.476;2024-01-27T15:11:16;5.63;;;0.90;;
68866;SDS011;56451;44.804;20.476;2024-01-27T15:13:50;3.88;;;1.05;;
68866;SDS011;56451;44.804;20.476;2024-01-27T15:16:16;4.45;;;1.33;;
68866;SDS011;56451;44.804;20.476;2024-01-27T15:18:44;3.05;;;1.33;;
68866;SDS011;56451;44.804;20.476;2024-01-27T15:21:10;3.15;;;1.13;;